createdAt,value
2023-01-19T00:01:19.268Z,54.00
2023-01-19T00:03:45.748Z,53.20
2023-01-19T00:06:12.283Z,53.50
2023-01-19T00:08:38.812Z,53.40
2023-01-19T00:11:05.257Z,53.30
2023-01-19T00:13:31.733Z,53.30
2023-01-19T00:15:58.242Z,53.20
2023-01-19T00:18:24.733Z,53.40
2023-01-19T00:20:51.198Z,53.50
2023-01-19T00:23:17.714Z,53.40
2023-01-19T00:25:44.212Z,53.50
2023-01-19T00:28:10.739Z,53.50
2023-01-19T00:30:37.217Z,53.40
2023-01-19T00:33:04.083Z,53.40
2023-01-19T00:35:30.725Z,53.60
2023-01-19T00:37:57.209Z,53.80
2023-01-19T00:40:23.788Z,53.90
2023-01-19T00:42:50.263Z,54.10
2023-01-19T00:45:16.739Z,54.00
2023-01-19T00:47:43.247Z,54.00
2023-01-19T00:50:09.729Z,54.10
2023-01-19T00:52:36.199Z,53.90
2023-01-19T00:55:02.664Z,54.10
2023-01-19T00:57:29.162Z,54.20
2023-01-19T00:59:55.636Z,54.20
2023-01-19T01:02:22.320Z,54.20
2023-01-19T01:04:48.986Z,54.00
2023-01-19T01:07:15.453Z,54.10
2023-01-19T01:09:41.925Z,54.30
2023-01-19T01:12:08.432Z,54.20
2023-01-19T01:14:34.901Z,54.20
2023-01-19T01:17:01.373Z,53.90
2023-01-19T01:19:27.847Z,54.10
2023-01-19T01:21:54.319Z,54.20
2023-01-19T01:24:21.706Z,54.40
2023-01-19T01:26:48.184Z,54.40
2023-01-19T01:29:14.652Z,54.40
2023-01-19T01:31:41.184Z,54.50
2023-01-19T01:34:07.681Z,54.60
2023-01-19T01:36:34.160Z,54.70
2023-01-19T01:39:00.659Z,54.70
2023-01-19T01:41:27.127Z,55.00
2023-01-19T01:43:53.704Z,54.90
2023-01-19T01:46:20.281Z,54.60
2023-01-19T01:48:46.758Z,54.70
2023-01-19T01:51:13.232Z,55.30
2023-01-19T01:53:39.704Z,54.70
2023-01-19T01:56:06.165Z,54.50
2023-01-19T01:58:32.652Z,54.30
2023-01-19T02:00:59.248Z,54.60
2023-01-19T02:03:25.847Z,54.70
2023-01-19T02:05:52.390Z,54.60
2023-01-19T02:08:18.882Z,54.40
2023-01-19T02:10:45.366Z,54.40
2023-01-19T02:13:11.845Z,54.50
2023-01-19T02:15:38.324Z,54.50
2023-01-19T02:18:04.809Z,54.70
2023-01-19T02:20:31.288Z,54.80
2023-01-19T02:22:58.116Z,54.70
2023-01-19T02:25:24.954Z,54.90
2023-01-19T02:27:51.448Z,54.80
2023-01-19T02:30:17.942Z,54.80
2023-01-19T02:32:44.384Z,54.90
2023-01-19T02:35:10.873Z,55.10
2023-01-19T02:37:41.697Z,55.10
2023-01-19T02:40:08.191Z,55.30
2023-01-19T02:42:34.698Z,55.10
2023-01-19T02:45:01.171Z,55.00
2023-01-19T02:47:27.652Z,54.90
2023-01-19T02:49:54.190Z,54.80
2023-01-19T02:52:21.955Z,54.90
2023-01-19T02:54:48.485Z,54.80
2023-01-19T02:57:14.954Z,54.80
2023-01-19T02:59:41.431Z,54.70
2023-01-19T03:02:08.094Z,54.90
2023-01-19T03:04:34.712Z,54.70
2023-01-19T03:07:01.191Z,54.60
2023-01-19T03:09:27.649Z,54.90
2023-01-19T03:11:54.133Z,54.90
2023-01-19T03:14:20.617Z,54.90
2023-01-19T03:16:47.148Z,54.80
2023-01-19T03:19:13.685Z,54.90
2023-01-19T03:21:40.151Z,54.80
2023-01-19T03:24:06.616Z,55.00
2023-01-19T03:26:33.104Z,55.00
2023-01-19T03:28:59.561Z,55.00
2023-01-19T03:31:26.040Z,55.00
2023-01-19T03:33:52.522Z,55.10
2023-01-19T03:36:19.008Z,55.30
2023-01-19T03:38:45.490Z,55.30
2023-01-19T03:41:11.975Z,55.30
2023-01-19T03:43:38.441Z,55.10
2023-01-19T03:46:05.004Z,55.10
2023-01-19T03:48:31.526Z,55.40
2023-01-19T03:50:58.019Z,55.00
2023-01-19T03:53:24.491Z,55.10
2023-01-19T03:55:50.984Z,55.30
2023-01-19T03:58:17.450Z,55.10
2023-01-19T04:00:43.959Z,54.90
2023-01-19T04:03:10.438Z,55.00
2023-01-19T04:05:36.982Z,55.00
2023-01-19T04:08:03.475Z,55.30
2023-01-19T04:10:29.951Z,55.20
2023-01-19T04:12:56.450Z,55.20
2023-01-19T04:15:22.925Z,55.10
2023-01-19T04:17:49.567Z,55.40
2023-01-19T04:20:16.043Z,55.40
2023-01-19T04:22:47.757Z,55.40
2023-01-19T04:25:14.240Z,55.50
2023-01-19T04:27:40.720Z,55.60
2023-01-19T04:30:07.263Z,55.70
2023-01-19T04:32:33.742Z,55.80
2023-01-19T04:35:00.236Z,55.80
2023-01-19T04:37:26.716Z,55.70
2023-01-19T04:39:53.193Z,55.80
2023-01-19T04:42:19.662Z,55.70
2023-01-19T04:44:46.143Z,55.90
2023-01-19T04:47:12.632Z,55.80
2023-01-19T04:49:39.106Z,55.60
2023-01-19T04:52:05.596Z,55.70
2023-01-19T04:54:32.134Z,55.90
2023-01-19T04:56:58.660Z,56.00
2023-01-19T04:59:25.156Z,56.10
2023-01-19T05:01:51.674Z,56.30
2023-01-19T05:04:18.154Z,56.10
2023-01-19T05:06:44.913Z,56.10
2023-01-19T05:09:11.393Z,56.00
2023-01-19T05:11:37.896Z,56.30
2023-01-19T05:14:04.388Z,56.50
2023-01-19T05:16:30.884Z,56.60
2023-01-19T05:18:57.358Z,56.40
2023-01-19T05:21:23.847Z,56.50
2023-01-19T05:23:50.345Z,56.10
2023-01-19T05:26:16.833Z,56.10
2023-01-19T05:28:43.326Z,56.10
2023-01-19T05:31:09.917Z,55.90
2023-01-19T05:33:36.485Z,56.00
2023-01-19T05:36:02.966Z,56.10
2023-01-19T05:38:34.869Z,56.10
2023-01-19T05:41:01.681Z,55.90
2023-01-19T05:43:28.378Z,55.80
2023-01-19T05:45:54.982Z,56.00
2023-01-19T05:48:21.480Z,56.10
2023-01-19T05:50:47.961Z,56.00
2023-01-19T05:53:14.434Z,56.10
2023-01-19T05:55:40.935Z,56.10
2023-01-19T05:58:07.426Z,56.40
2023-01-19T06:00:33.906Z,56.40
2023-01-19T06:03:00.692Z,56.50
2023-01-19T06:05:27.389Z,56.60
2023-01-19T06:07:53.867Z,56.80
2023-01-19T06:10:20.331Z,56.70
2023-01-19T06:12:46.792Z,56.60
2023-01-19T06:15:13.340Z,56.30
2023-01-19T06:17:39.840Z,56.30
2023-01-19T06:20:06.309Z,56.60
2023-01-19T06:22:32.795Z,56.60
2023-01-19T06:24:59.283Z,56.60
2023-01-19T06:27:25.769Z,56.30
2023-01-19T06:29:52.241Z,56.40
2023-01-19T06:32:18.732Z,56.30
2023-01-19T06:34:45.213Z,56.50
2023-01-19T06:37:11.711Z,56.40
2023-01-19T06:39:38.181Z,56.60
2023-01-19T06:42:04.686Z,56.40
2023-01-19T06:44:31.222Z,56.60
2023-01-19T06:47:14.866Z,56.70
2023-01-19T06:49:42.597Z,56.60
2023-01-19T06:52:09.088Z,56.40
2023-01-19T06:54:35.561Z,56.40
2023-01-19T06:57:02.804Z,56.50
2023-01-19T06:59:29.341Z,56.50
2023-01-19T07:01:55.995Z,56.40
2023-01-19T07:04:22.580Z,56.80
2023-01-19T07:06:49.059Z,56.60
2023-01-19T07:09:16.895Z,56.80
2023-01-19T07:11:43.467Z,56.60
2023-01-19T07:14:09.943Z,56.50
2023-01-19T07:16:36.441Z,56.60
2023-01-19T07:19:02.927Z,56.40
2023-01-19T07:21:29.546Z,56.70
2023-01-19T07:23:56.049Z,56.50
2023-01-19T07:26:22.531Z,56.60
2023-01-19T07:28:49.025Z,56.90
2023-01-19T07:31:15.648Z,57.20
2023-01-19T07:33:42.282Z,56.80
2023-01-19T07:36:08.773Z,56.80
2023-01-19T07:38:35.256Z,56.80
2023-01-19T07:41:01.748Z,56.50
2023-01-19T07:43:28.231Z,56.80
2023-01-19T07:45:54.778Z,56.60
2023-01-19T07:48:21.257Z,56.60
2023-01-19T07:50:47.717Z,56.60
2023-01-19T07:53:14.207Z,57.30
2023-01-19T07:55:40.804Z,56.80
2023-01-19T07:58:07.358Z,57.00
2023-01-19T08:00:33.907Z,56.90
2023-01-19T08:03:00.761Z,57.00
2023-01-19T08:05:27.548Z,57.00
2023-01-19T08:07:54.275Z,57.10
2023-01-19T08:10:20.791Z,57.30
2023-01-19T08:12:47.280Z,57.10
2023-01-19T08:15:13.767Z,57.10
2023-01-19T08:17:40.241Z,57.20
2023-01-19T08:20:06.762Z,57.00
2023-01-19T08:22:33.254Z,57.20
2023-01-19T08:24:59.751Z,57.40
2023-01-19T08:27:26.244Z,57.30
2023-01-19T08:29:52.741Z,57.40
2023-01-19T08:32:19.356Z,57.50
2023-01-19T08:34:45.898Z,57.30
2023-01-19T08:37:12.395Z,57.60
2023-01-19T08:39:38.902Z,57.50
2023-01-19T08:42:05.383Z,57.50
2023-01-19T08:44:31.840Z,57.70
2023-01-19T08:46:58.335Z,57.50
2023-01-19T08:49:24.820Z,57.50
2023-01-19T08:51:51.333Z,57.50
2023-01-19T08:54:18.775Z,57.70
2023-01-19T08:56:45.323Z,57.40
2023-01-19T08:59:13.099Z,57.50
2023-01-19T09:01:40.737Z,57.60
2023-01-19T09:04:07.286Z,57.60
2023-01-19T09:06:33.789Z,58.00
2023-01-19T09:09:00.411Z,58.20
2023-01-19T09:11:26.893Z,58.10
2023-01-19T09:13:53.356Z,58.10
2023-01-19T09:16:19.869Z,57.90
2023-01-19T09:18:46.360Z,57.70
2023-01-19T09:21:12.855Z,57.80
2023-01-19T09:23:39.340Z,58.10
2023-01-19T09:26:05.829Z,57.90
2023-01-19T09:28:32.502Z,57.80
2023-01-19T09:30:59.100Z,58.30
2023-01-19T09:33:25.634Z,58.20
2023-01-19T09:35:52.136Z,58.10
2023-01-19T09:38:18.638Z,58.20
2023-01-19T09:40:45.124Z,58.30
2023-01-19T09:43:11.644Z,58.30
2023-01-19T09:45:38.122Z,58.00
2023-01-19T09:48:04.677Z,57.60
2023-01-19T09:50:31.159Z,57.90
2023-01-19T09:52:57.612Z,57.90
2023-01-19T09:55:24.116Z,58.00
2023-01-19T09:57:50.588Z,58.50
2023-01-19T10:00:17.089Z,58.60
2023-01-19T10:02:43.631Z,58.60
2023-01-19T10:05:10.128Z,58.40
2023-01-19T10:07:36.617Z,58.30
2023-01-19T10:10:03.113Z,58.00
2023-01-19T10:12:29.583Z,57.90
2023-01-19T10:14:56.158Z,58.20
2023-01-19T10:17:22.801Z,58.30
2023-01-19T10:19:49.272Z,58.30
2023-01-19T10:22:15.763Z,58.20
2023-01-19T10:24:42.254Z,58.10
2023-01-19T10:27:08.734Z,58.30
2023-01-19T10:29:35.244Z,58.20
2023-01-19T10:32:01.785Z,58.40
2023-01-19T10:34:28.296Z,58.60
2023-01-19T10:36:54.850Z,58.70
2023-01-19T10:39:21.315Z,58.80
2023-01-19T10:41:48.007Z,58.70
2023-01-19T10:44:14.559Z,58.90
2023-01-19T10:46:41.053Z,58.80
2023-01-19T10:49:07.603Z,58.80
2023-01-19T10:51:34.108Z,59.00
2023-01-19T10:54:00.618Z,58.90
2023-01-19T10:56:27.103Z,59.20
2023-01-19T11:01:37.900Z,59.20
2023-01-19T11:04:04.643Z,59.00
2023-01-19T11:06:31.125Z,58.70
2023-01-19T11:08:57.614Z,58.70
2023-01-19T11:11:24.095Z,59.00
2023-01-19T11:13:50.555Z,59.00
2023-01-19T11:16:17.048Z,58.90
2023-01-19T11:18:43.538Z,58.90
2023-01-19T11:21:10.015Z,58.80
2023-01-19T11:23:36.500Z,58.60
2023-01-19T11:26:02.970Z,58.50
2023-01-19T11:28:29.452Z,58.50
2023-01-19T11:33:45.878Z,58.80
2023-01-19T11:36:12.369Z,58.60
2023-01-19T11:38:38.842Z,58.50
2023-01-19T11:41:05.315Z,58.70
2023-01-19T11:43:47.525Z,58.80
2023-01-19T11:46:14.637Z,58.90
2023-01-19T11:48:41.104Z,58.90
2023-01-19T11:51:07.642Z,58.90
2023-01-19T11:53:34.135Z,58.50
2023-01-19T11:56:00.636Z,58.40
2023-01-19T11:58:27.130Z,58.40
2023-01-19T12:03:44.309Z,58.40
2023-01-19T12:06:10.896Z,58.50
2023-01-19T12:08:37.387Z,58.70
2023-01-19T12:11:04.181Z,58.60
2023-01-19T12:13:30.661Z,58.60
2023-01-19T12:15:57.164Z,58.60
2023-01-19T12:18:23.644Z,58.60
2023-01-19T12:20:50.131Z,58.40
2023-01-19T12:23:16.617Z,58.40
2023-01-19T12:25:43.135Z,58.70
2023-01-19T12:28:09.631Z,58.70
2023-01-19T12:30:36.234Z,58.60
2023-01-19T12:33:02.785Z,58.90
2023-01-19T12:35:29.295Z,58.60
2023-01-19T12:37:55.778Z,58.70
2023-01-19T12:40:22.232Z,58.70
2023-01-19T12:42:54.150Z,58.60
2023-01-19T12:45:20.626Z,58.60
2023-01-19T12:47:56.382Z,58.70
2023-01-19T12:50:22.866Z,58.70
2023-01-19T12:52:49.368Z,58.60
2023-01-19T12:55:15.854Z,58.80
2023-01-19T12:57:42.345Z,58.70
2023-01-19T13:00:08.813Z,58.50
2023-01-19T13:02:35.324Z,58.60
2023-01-19T13:05:01.837Z,58.60
2023-01-19T13:07:28.320Z,58.70
2023-01-19T13:09:54.790Z,58.70
2023-01-19T13:12:21.268Z,58.50
2023-01-19T13:14:47.775Z,58.80
2023-01-19T13:17:14.261Z,58.60
2023-01-19T13:19:40.743Z,58.70
2023-01-19T13:22:07.271Z,58.80
2023-01-19T13:24:33.760Z,58.90
2023-01-19T13:27:00.259Z,58.70
2023-01-19T13:29:26.733Z,59.10
2023-01-19T13:31:53.221Z,58.80
2023-01-19T13:34:19.722Z,58.90
2023-01-19T13:36:46.218Z,58.90
2023-01-19T13:39:12.689Z,58.70
2023-01-19T13:41:39.168Z,58.60
2023-01-19T13:44:05.658Z,58.50
2023-01-19T13:46:32.231Z,58.90
2023-01-19T13:48:58.774Z,58.50
2023-01-19T13:51:25.272Z,58.90
2023-01-19T13:53:51.810Z,58.90
2023-01-19T13:56:18.299Z,58.90
2023-01-19T13:58:48.221Z,58.90
2023-01-19T14:01:14.785Z,58.80
2023-01-19T14:03:41.304Z,58.70
2023-01-19T14:06:07.942Z,58.90
2023-01-19T14:08:34.450Z,58.90
2023-01-19T14:11:00.939Z,59.20
2023-01-19T14:13:27.419Z,59.30
2023-01-19T14:15:56.947Z,59.40
2023-01-19T14:18:23.533Z,59.40
2023-01-19T14:20:50.004Z,59.30
2023-01-19T14:23:16.532Z,59.10
2023-01-19T14:25:43.022Z,58.80
2023-01-19T14:28:09.505Z,59.10
2023-01-19T14:30:36.029Z,59.00
2023-01-19T14:33:02.526Z,59.00
2023-01-19T14:35:29.004Z,59.00
2023-01-19T14:37:55.484Z,58.80
2023-01-19T14:40:21.960Z,59.00
2023-01-19T14:42:48.428Z,59.00
2023-01-19T14:45:15.171Z,59.50
2023-01-19T14:47:41.653Z,59.50
2023-01-19T14:50:08.309Z,59.50
2023-01-19T14:52:34.890Z,59.20
2023-01-19T14:55:01.420Z,59.00
2023-01-19T14:57:27.909Z,59.10
2023-01-19T15:00:00.291Z,59.30
2023-01-19T15:02:26.864Z,59.40
2023-01-19T15:04:53.428Z,59.10
2023-01-19T15:07:19.912Z,59.30
2023-01-19T15:09:46.415Z,59.50
2023-01-19T15:12:12.888Z,59.60
2023-01-19T15:14:39.400Z,59.60
2023-01-19T15:17:05.886Z,59.10
2023-01-19T15:19:32.374Z,59.10
2023-01-19T15:21:58.866Z,59.10
2023-01-19T15:24:25.366Z,58.80
2023-01-19T15:26:51.841Z,58.90
2023-01-19T15:29:18.385Z,59.20
2023-01-19T15:31:44.891Z,59.30
2023-01-19T15:34:11.394Z,59.10
2023-01-19T15:36:42.323Z,59.30
2023-01-19T15:39:12.315Z,59.20
2023-01-19T15:41:38.872Z,59.30
2023-01-19T15:44:05.368Z,59.50
2023-01-19T15:46:31.832Z,59.20
2023-01-19T15:48:58.305Z,59.10
2023-01-19T15:51:24.795Z,59.00
2023-01-19T15:53:51.300Z,59.00
2023-01-19T15:56:17.812Z,58.70
2023-01-19T15:58:44.284Z,58.70
2023-01-19T16:01:10.861Z,58.80
2023-01-19T16:03:37.381Z,58.70
2023-01-19T16:06:06.311Z,58.70
2023-01-19T16:08:32.781Z,58.70
2023-01-19T16:10:59.276Z,59.00
2023-01-19T16:13:25.754Z,58.90
2023-01-19T16:15:52.278Z,58.70
2023-01-19T16:18:18.793Z,58.80
2023-01-19T16:20:45.305Z,58.90
2023-01-19T16:23:15.646Z,59.10
2023-01-19T16:25:42.444Z,59.00
2023-01-19T16:28:08.920Z,59.00
2023-01-19T16:30:35.458Z,59.30
2023-01-19T16:33:01.955Z,59.60
2023-01-19T16:35:28.467Z,59.30
2023-01-19T16:37:54.951Z,59.10
2023-01-19T16:40:21.477Z,59.20
2023-01-19T16:42:47.938Z,59.30
2023-01-19T16:45:14.414Z,59.30
2023-01-19T16:47:40.889Z,59.40
2023-01-19T16:50:07.377Z,59.50
2023-01-19T16:52:33.861Z,59.40
2023-01-19T16:55:00.346Z,59.10
2023-01-19T16:57:26.813Z,59.40
2023-01-19T16:59:53.288Z,59.40
2023-01-19T17:02:19.712Z,59.30
2023-01-19T17:04:46.205Z,59.40
2023-01-19T17:07:12.693Z,59.60
2023-01-19T17:09:39.171Z,59.60
2023-01-19T17:12:05.676Z,59.50
2023-01-19T17:14:32.169Z,59.50
2023-01-19T17:16:59.770Z,59.70
2023-01-19T17:19:28.615Z,59.60
2023-01-19T17:21:55.104Z,59.60
2023-01-19T17:24:21.596Z,59.30
2023-01-19T17:26:48.130Z,59.50
2023-01-19T17:29:14.610Z,59.50
2023-01-19T17:31:41.174Z,59.30
2023-01-19T17:34:07.691Z,59.30
2023-01-19T17:36:34.192Z,59.10
2023-01-19T17:39:00.672Z,58.80
2023-01-19T17:41:27.138Z,58.70
2023-01-19T17:43:53.605Z,58.70
2023-01-19T17:46:20.142Z,58.60
2023-01-19T17:51:37.330Z,58.60
2023-01-19T17:54:03.807Z,58.60
2023-01-19T17:56:30.391Z,58.60
2023-01-19T17:58:56.930Z,58.40
2023-01-19T18:01:23.499Z,58.40
2023-01-19T18:03:50.005Z,58.40
2023-01-19T18:06:16.494Z,58.40
2023-01-19T18:08:42.976Z,58.50
2023-01-19T18:11:09.466Z,58.50
2023-01-19T18:13:35.950Z,58.40
2023-01-19T18:16:02.503Z,58.50
2023-01-19T18:18:29.001Z,58.60
2023-01-19T18:20:55.495Z,58.40
2023-01-19T18:23:22.008Z,58.30
2023-01-19T18:25:48.510Z,58.00
2023-01-19T18:28:15.035Z,58.30
2023-01-19T18:30:41.645Z,58.30
2023-01-19T18:33:08.227Z,58.70
2023-01-19T18:35:34.729Z,58.70
2023-01-19T18:38:01.245Z,58.90
2023-01-19T18:40:27.804Z,58.40
2023-01-19T18:42:54.295Z,58.70
2023-01-19T18:45:20.785Z,58.60
2023-01-19T18:47:47.252Z,58.40
2023-01-19T18:50:18.464Z,58.10
2023-01-19T18:52:44.941Z,58.00
2023-01-19T18:55:11.440Z,58.20
2023-01-19T18:57:42.787Z,58.20
2023-01-19T19:00:09.264Z,58.00
2023-01-19T19:02:35.757Z,58.10
2023-01-19T19:05:02.280Z,58.20
2023-01-19T19:07:28.733Z,58.10
2023-01-19T19:09:55.278Z,58.10
2023-01-19T19:12:21.757Z,58.00
2023-01-19T19:14:48.265Z,58.30
2023-01-19T19:17:14.741Z,58.40
2023-01-19T19:19:41.241Z,58.60
2023-01-19T19:22:07.774Z,58.10
2023-01-19T19:24:34.285Z,58.20
2023-01-19T19:27:00.764Z,58.60
2023-01-19T19:29:27.254Z,58.40
2023-01-19T19:31:53.724Z,58.50
2023-01-19T19:34:20.189Z,58.60
2023-01-19T19:36:46.661Z,58.80
2023-01-19T19:39:13.144Z,58.70
2023-01-19T19:41:39.629Z,58.70
2023-01-19T19:44:06.100Z,58.60
2023-01-19T19:46:32.657Z,58.80
2023-01-19T19:48:59.151Z,58.60
2023-01-19T19:51:25.729Z,58.70
2023-01-19T19:53:52.238Z,58.60
2023-01-19T19:56:18.717Z,58.70
2023-01-19T19:58:45.175Z,58.70
2023-01-19T20:01:11.785Z,58.90
2023-01-19T20:03:38.368Z,58.70
2023-01-19T20:06:04.849Z,58.70
2023-01-19T20:08:31.332Z,58.50
2023-01-19T20:10:57.817Z,57.90
2023-01-19T20:13:24.308Z,58.10
2023-01-19T20:15:50.815Z,58.30
2023-01-19T20:18:17.350Z,58.50
2023-01-19T20:20:43.870Z,58.20
2023-01-19T20:23:10.337Z,58.30
2023-01-19T20:25:36.854Z,58.30
2023-01-19T20:28:03.337Z,58.50
2023-01-19T20:30:29.887Z,58.20
2023-01-19T20:32:56.384Z,58.50
2023-01-19T20:35:22.864Z,58.50
2023-01-19T20:37:49.321Z,58.40
2023-01-19T20:40:15.807Z,58.40
2023-01-19T20:42:42.284Z,58.60
2023-01-19T20:45:08.741Z,58.30
2023-01-19T20:47:35.226Z,58.60
2023-01-19T20:50:01.711Z,58.50
2023-01-19T20:52:28.227Z,58.20
2023-01-19T20:54:54.723Z,58.40
2023-01-19T20:57:21.217Z,58.60
2023-01-19T20:59:47.678Z,58.70
2023-01-19T21:02:14.220Z,58.70
2023-01-19T21:04:40.747Z,58.70
2023-01-19T21:07:07.230Z,58.70
2023-01-19T21:09:33.705Z,58.70
2023-01-19T21:12:00.186Z,58.60
2023-01-19T21:14:26.693Z,58.40
2023-01-19T21:16:53.186Z,58.40
2023-01-19T21:19:19.670Z,58.40
2023-01-19T21:21:46.189Z,58.40
2023-01-19T21:24:12.675Z,58.50
2023-01-19T21:26:39.168Z,58.60
2023-01-19T21:29:05.639Z,58.40
2023-01-19T21:31:32.192Z,58.20
2023-01-19T21:33:58.726Z,58.60
2023-01-19T21:36:25.257Z,58.40
2023-01-19T21:38:51.744Z,58.50
2023-01-19T21:41:18.459Z,58.50
2023-01-19T21:43:45.139Z,58.60
2023-01-19T21:46:11.644Z,58.60
2023-01-19T21:48:42.767Z,58.50
2023-01-19T21:51:09.239Z,58.60
2023-01-19T21:53:35.713Z,58.30
2023-01-19T21:56:02.187Z,58.40
2023-01-19T21:58:28.666Z,58.70
2023-01-19T22:00:55.249Z,58.80
2023-01-19T22:03:21.829Z,59.00
2023-01-19T22:05:48.408Z,58.60
2023-01-19T22:08:14.899Z,58.70
2023-01-19T22:10:41.351Z,58.70
2023-01-19T22:13:07.807Z,58.60
2023-01-19T22:15:34.285Z,58.80
2023-01-19T22:18:00.768Z,58.70
2023-01-19T22:20:27.242Z,58.60
2023-01-19T22:22:53.795Z,58.70
2023-01-19T22:25:20.285Z,58.80
2023-01-19T22:27:46.804Z,58.60
2023-01-19T22:30:13.290Z,58.40
2023-01-19T22:32:39.822Z,58.70
2023-01-19T22:35:06.309Z,58.60
2023-01-19T22:37:32.797Z,58.70
2023-01-19T22:40:00.600Z,58.70
2023-01-19T22:42:27.062Z,58.80
2023-01-19T22:44:53.547Z,58.90
2023-01-19T22:47:20.062Z,59.10
2023-01-19T22:49:46.554Z,59.00
2023-01-19T22:52:13.078Z,59.30
2023-01-19T22:54:39.555Z,59.30
2023-01-19T22:57:06.052Z,59.50
2023-01-19T22:59:32.536Z,59.30
2023-01-19T23:01:59.171Z,59.10
2023-01-19T23:04:25.704Z,59.10
2023-01-19T23:06:52.167Z,58.90
2023-01-19T23:09:18.648Z,58.90
2023-01-19T23:11:45.137Z,58.90
2023-01-19T23:14:11.639Z,58.90
2023-01-19T23:16:38.105Z,58.70
2023-01-19T23:19:04.566Z,58.60
2023-01-19T23:21:31.043Z,58.60
2023-01-19T23:23:57.530Z,58.60
2023-01-19T23:26:24.025Z,58.80
2023-01-19T23:28:50.533Z,58.90
2023-01-19T23:31:17.043Z,58.90
2023-01-19T23:33:43.560Z,59.00
2023-01-19T23:36:10.047Z,59.30
2023-01-19T23:38:36.521Z,59.30
2023-01-19T23:41:02.980Z,59.30
2023-01-19T23:43:29.461Z,59.30
2023-01-19T23:45:56.010Z,59.40
2023-01-19T23:48:22.574Z,58.90
2023-01-19T23:50:49.060Z,58.90
2023-01-19T23:53:15.579Z,59.30
2023-01-19T23:55:42.074Z,59.00
2023-01-19T23:58:08.568Z,58.90
